Map

Track Data

SID SEASON NUMBER BASIN SUBBASIN NAME ISO_TIME NATURE LAT LON WMO_WIND WMO_PRES WMO_AGENCY TRACK_TYPE DIST2LAND LANDFALL IFLAG USA_AGENCY USA_ATCF_ID USA_LAT USA_LON USA_RECORD USA_STATUS USA_WIND USA_PRES USA_SSHS USA_R34_NE USA_R34_SE USA_R34_SW USA_R34_NW USA_R50_NE USA_R50_SE USA_R50_SW USA_R50_NW USA_R64_NE USA_R64_SE USA_R64_SW USA_R64_NW USA_POCI USA_ROCI USA_RMW USA_EYE TOKYO_LAT TOKYO_LON TOKYO_GRADE TOKYO_WIND TOKYO_PRES TOKYO_R50_DIR TOKYO_R50_LONG TOKYO_R50_SHORT TOKYO_R30_DIR TOKYO_R30_LONG TOKYO_R30_SHORT TOKYO_LAND CMA_LAT CMA_LON CMA_CAT CMA_WIND CMA_PRES HKO_LAT HKO_LON HKO_CAT HKO_WIND HKO_PRES NEWDELHI_LAT NEWDELHI_LON NEWDELHI_GRADE NEWDELHI_WIND NEWDELHI_PRES NEWDELHI_CI NEWDELHI_DP NEWDELHI_POCI REUNION_LAT REUNION_LON REUNION_TYPE REUNION_WIND REUNION_PRES REUNION_TNUM REUNION_CI REUNION_RMW REUNION_R34_NE REUNION_R34_SE REUNION_R34_SW REUNION_R34_NW REUNION_R50_NE REUNION_R50_SE REUNION_R50_SW REUNION_R50_NW REUNION_R64_NE REUNION_R64_SE REUNION_R64_SW REUNION_R64_NW BOM_LAT BOM_LON BOM_TYPE BOM_WIND BOM_PRES BOM_TNUM BOM_CI BOM_RMW BOM_R34_NE BOM_R34_SE BOM_R34_SW BOM_R34_NW BOM_R50_NE BOM_R50_SE BOM_R50_SW BOM_R50_NW BOM_R64_NE BOM_R64_SE BOM_R64_SW BOM_R64_NW BOM_ROCI BOM_POCI BOM_EYE BOM_POS_METHOD BOM_PRES_METHOD NADI_LAT NADI_LON NADI_CAT NADI_WIND NADI_PRES WELLINGTON_LAT WELLINGTON_LON WELLINGTON_WIND WELLINGTON_PRES DS824_LAT DS824_LON DS824_STAGE DS824_WIND DS824_PRES TD9636_LAT TD9636_LON TD9636_STAGE TD9636_WIND TD9636_PRES TD9635_LAT TD9635_LON TD9635_WIND TD9635_PRES TD9635_ROCI NEUMANN_LAT NEUMANN_LON NEUMANN_CLASS NEUMANN_WIND NEUMANN_PRES MLC_LAT MLC_LON MLC_CLASS MLC_WIND MLC_PRES USA_GUST BOM_GUST BOM_GUST_PER REUNION_GUST REUNION_GUST_PER USA_SEAHGT USA_SEARAD_NE USA_SEARAD_SE USA_SEARAD_SW USA_SEARAD_NW STORM_SPEED STORM_DIR
1904189N23089 1904 19 NI BB NOT_NAMED 1904-07-07 00:00:00 TS 22.8000 88.6000 main 0 0 _________O____ -1 22.8000 88.6000 TC 30 4 268
1904189N23089 1904 19 NI BB NOT_NAMED 1904-07-07 03:00:00 TS 22.7918 88.3950 main 0 0 _________PO___ -1 22.7876 88.2924 TC 30 22.8000 88.6000 1 4 272
1904189N23089 1904 19 NI BB NOT_NAMED 1904-07-07 06:00:00 TS 22.8134 88.1195 main 0 0 _________OP___ -1 22.8000 88.0000 TC 30 22.8334 88.2987 1 5 277
1904189N23089 1904 19 NI BB NOT_NAMED 1904-07-07 09:00:00 TS 22.8557 87.8520 main 0 0 _________PP___ -1 22.8500 87.7351 TC 30 22.8632 88.0079 1 5 280
1904189N23089 1904 19 NI BB NOT_NAMED 1904-07-07 12:00:00 TS 22.8932 87.6190 main 0 0 _________OP___ -1 22.9000 87.5000 TC 30 22.8864 87.7381 1 4 276
1904189N23089 1904 19 NI BB NOT_NAMED 1904-07-07 15:00:00 TS 22.9000 87.3962 main 0 0 _________PO___ -1 22.8999 87.2924 TC 30 22.9000 87.5000 1 4 271
1904189N23089 1904 19 NI BB NOT_NAMED 1904-07-07 18:00:00 TS 22.9021 87.1992 main 0 0 _________OP___ -1 22.9000 87.1000 TC 30 22.9042 87.2984 1 3 273
1904189N23089 1904 19 NI BB NOT_NAMED 1904-07-07 21:00:00 TS 22.9196 87.0184 main 0 0 _________PP___ -1 22.9274 86.9224 TC 30 22.9119 87.1144 1 4 281
1904189N23089 1904 19 NI BB NOT_NAMED 1904-07-08 00:00:00 TS 22.9693 86.8116 main 0 0 _________OP___ -1 23.0000 86.7000 TC 30 22.9386 86.9233 1 5 288
1904189N23089 1904 19 NI BB NOT_NAMED 1904-07-08 03:00:00 TS 23.0675 86.5325 main 0 0 _________PO___ -1 23.1351 86.3651 TC 30 23.0000 86.7000 1 6 293
1904189N23089 1904 19 NI BB NOT_NAMED 1904-07-08 06:00:00 TS 23.2070 86.2096 main 0 0 _________OP___ -1 23.3000 86.0000 TC 30 23.1141 86.4192 1 6 296
1904189N23089 1904 19 NI BB NOT_NAMED 1904-07-08 09:00:00 TS 23.3561 85.9013 main 0 0 _________PP___ -1 23.4499 85.6999 TC 30 23.2624 86.1027 1 7 298
1904189N23089 1904 19 NI BB NOT_NAMED 1904-07-08 12:00:00 TS 23.5148 85.5799 main 0 0 _________OP___ -1 23.6000 85.4000 TC 30 23.4296 85.7598 1 7 297
1904189N23089 1904 19 NI BB NOT_NAMED 1904-07-08 15:00:00 TS 23.6750 85.2325 main 0 0 _________PO___ -1 23.7499 85.0649 TC 30 23.6000 85.4000 1 7 296
1904189N23089 1904 19 NI BB NOT_NAMED 1904-07-08 18:00:00 TS 23.8289 84.8777 main 0 0 _________OP___ -1 23.9000 84.7000 TC 30 23.7577 85.0555 1 7 295
1904189N23089 1904 19 NI BB NOT_NAMED 1904-07-08 21:00:00 TS 23.9859 84.5049 main 0 0 _________PP___ -1 24.0574 84.3150 TC 30 23.9144 84.6948 1 8 293
1904189N23089 1904 19 NI BB NOT_NAMED 1904-07-09 00:00:00 TS 24.1319 84.1059 main 0 0 _________OP___ -1 24.2000 83.9000 TC 30 24.0638 84.3117 1 8 290
1904189N23089 1904 19 NI BB NOT_NAMED 1904-07-09 03:00:00 TS 24.2537 83.6824 main 0 0 _________PO___ -1 24.3074 83.4649 TC 30 24.2000 83.9000 1 8 286
1904189N23089 1904 19 NI BB NOT_NAMED 1904-07-09 06:00:00 TS 24.3590 83.2348 main 0 0 _________OP___ -1 24.4000 83.0000 TC 30 24.3180 83.4697 1 9 284
1904189N23089 1904 19 NI BB NOT_NAMED 1904-07-09 09:00:00 TS 24.4645 82.7660 main 0 0 _________PP___ -1 24.5072 82.5225 TC 30 24.4218 83.0095 1 9 283
1904189N23089 1904 19 NI BB NOT_NAMED 1904-07-09 12:00:00 TS 24.5574 82.2598 main 0 0 _________OP___ -1 24.6000 82.0000 TC 30 24.5147 82.5197 1 10 279
1904189N23089 1904 19 NI BB NOT_NAMED 1904-07-09 15:00:00 TS 24.6250 81.7036 main 0 0 _________PO___ -1 24.6500 81.4073 TC 30 24.6000 82.0000 1 11 277
1904189N23089 1904 19 NI BB NOT_NAMED 1904-07-09 18:00:00 TS 24.6896 81.0984 main 0 0 _________OP___ -1 24.7000 80.8000 TC 30 24.6792 81.3968 1 11 278
1904189N23089 1904 19 NI BB NOT_NAMED 1904-07-09 21:00:00 TS 24.7721 80.4863 main 0 0 _________PP___ -1 24.7926 80.1976 TC 30 24.7517 80.7750 1 11 279
1904189N23089 1904 19 NI BB NOT_NAMED 1904-07-10 00:00:00 TS 24.8615 79.9453 main 0 0 _________OP___ -1 24.9000 79.7000 TC 30 24.8231 80.1906 1 9 282
1904189N23089 1904 19 NI BB NOT_NAMED 1904-07-10 03:00:00 TS 24.9498 79.5487 main 0 0 _________PO___ -1 24.9997 79.3974 TC 30 24.9000 79.7000 1 6 287
1904189N23089 1904 19 NI BB NOT_NAMED 1904-07-10 06:00:00 TS 25.0437 79.2850 main 0 0 _________OP___ -1 25.1000 79.2000 TC 30 24.9874 79.3700 1 5 294
1904189N23089 1904 19 NI BB NOT_NAMED 1904-07-10 09:00:00 TS 25.1417 79.0648 main 0 0 _________PP___ -1 25.1999 78.9924 TC 30 25.0834 79.1371 1 4 299
1904189N23089 1904 19 NI BB NOT_NAMED 1904-07-10 12:00:00 TS 25.2439 78.8803 main 0 0 _________OP___ -1 25.3000 78.8000 TC 30 25.1878 78.9606 1 4 302
1904189N23089 1904 19 NI BB NOT_NAMED 1904-07-10 15:00:00 TS 25.3462 78.7000 main 0 0 _________PO___ -1 25.3925 78.5999 TC 30 25.3000 78.8000 1 4 303
1904189N23089 1904 19 NI BB NOT_NAMED 1904-07-10 18:00:00 TS 25.4538 78.5270 main 0 0 _________OP___ -1 25.5000 78.4000 TC 30 25.4191 78.6222 1 4 306
1904189N23089 1904 19 NI BB NOT_NAMED 1904-07-10 21:00:00 TS 25.5820 78.3354 main 0 0 _________PP___ -1 25.6401 78.2001 TC 30 25.5434 78.4255 1 4 307
1904189N23089 1904 19 NI BB NOT_NAMED 1904-07-11 00:00:00 TS 25.7140 78.1441 main 0 0 _________OP___ -1 25.8000 78.0000 TC 30 25.6709 78.2161 1 4 306
1904189N23089 1904 19 NI AS NOT_NAMED 1904-07-11 03:00:00 NR 25.8000 78.0000 main 0 __________O___ -1 TC 25.8000 78.0000 1 3 303

About IBTrACS Database

This database is a web-friendly format of International Best Track Archive for Climate Stewardship (IBTrACS), a global best track data archive curated by NOAA dating back to 1842.

Updated: 2021-10-25